createdAt,value
2019-01-11T00:00:15.857Z,79.6
2019-01-11T00:01:15.850Z,79.5
2019-01-11T00:02:16.121Z,78.7
2019-01-11T00:03:16.378Z,78.6
2019-01-11T00:04:16.652Z,78.9
2019-01-11T00:05:15.945Z,79.5
2019-01-11T00:06:16.213Z,79.3
2019-01-11T00:07:16.479Z,79.8
2019-01-11T00:08:15.753Z,79.4
2019-01-11T00:09:16.018Z,80.0
2019-01-11T00:10:16.284Z,79.8
2019-01-11T00:11:16.333Z,79.1
2019-01-11T00:12:16.599Z,79.1
2019-01-11T00:13:15.865Z,79.0
2019-01-11T00:14:16.124Z,79.0
2019-01-11T00:15:16.399Z,78.3
2019-01-11T00:16:16.664Z,79.2
2019-01-11T00:17:15.932Z,79.0
2019-01-11T00:18:16.196Z,79.5
2019-01-11T00:19:16.457Z,78.4
2019-01-11T00:20:15.730Z,77.6
2019-01-11T00:21:15.774Z,77.8
2019-01-11T00:22:16.032Z,78.1
2019-01-11T00:23:16.289Z,77.7
2019-01-11T00:24:16.550Z,77.1
2019-01-11T00:25:15.811Z,77.2
2019-01-11T00:26:16.078Z,77.5
2019-01-11T00:27:16.339Z,77.1
2019-01-11T00:28:16.641Z,77.1
2019-01-11T00:29:15.907Z,76.9
2019-01-11T00:30:16.495Z,76.2
2019-01-11T00:31:16.239Z,76.1
2019-01-11T00:32:16.533Z,75.9
2019-01-11T00:33:15.796Z,75.9
2019-01-11T00:34:16.079Z,75.5
2019-01-11T00:35:16.334Z,75.2
2019-01-11T00:36:16.592Z,75.4
2019-01-11T00:37:15.852Z,75.0
2019-01-11T00:38:16.122Z,74.3
2019-01-11T00:39:16.389Z,74.5
2019-01-11T00:40:16.662Z,74.4
2019-01-11T00:41:15.728Z,74.3
2019-01-11T00:42:15.991Z,74.8
2019-01-11T00:43:16.251Z,75.3
2019-01-11T00:44:16.514Z,75.2
2019-01-11T00:45:15.787Z,76.2
2019-01-11T00:46:16.049Z,75.0
2019-01-11T00:47:16.309Z,75.5
2019-01-11T00:48:16.597Z,76.8
2019-01-11T00:49:15.852Z,76.2
2019-01-11T00:50:16.127Z,75.4
2019-01-11T00:51:16.174Z,77.2
2019-01-11T00:52:16.447Z,76.5
2019-01-11T00:53:15.719Z,75.5
2019-01-11T00:54:15.978Z,76.0
2019-01-11T00:55:16.247Z,76.6
2019-01-11T00:56:16.506Z,76.8
2019-01-11T00:57:15.757Z,76.4
2019-01-11T00:58:16.028Z,76.7
2019-01-11T00:59:16.304Z,75.4
2019-01-11T01:00:16.602Z,74.2
2019-01-11T01:01:16.634Z,74.6
2019-01-11T01:02:15.896Z,75.1
2019-01-11T01:03:16.309Z,74.7
2019-01-11T01:04:16.590Z,74.9
2019-01-11T01:05:15.848Z,75.2
2019-01-11T01:06:16.117Z,75.6
2019-01-11T01:07:16.377Z,76.3
2019-01-11T01:08:16.680Z,75.6
2019-01-11T01:09:15.947Z,75.4
2019-01-11T01:10:16.225Z,75.1
2019-01-11T01:11:16.264Z,74.7
2019-01-11T01:12:16.523Z,74.4
2019-01-11T01:13:15.786Z,75.3
2019-01-11T01:14:16.062Z,75.5
2019-01-11T01:15:16.347Z,75.7
2019-01-11T01:16:16.621Z,77.2
2019-01-11T01:17:15.891Z,77.2
2019-01-11T01:18:16.146Z,77.6
2019-01-11T01:19:20.199Z,76.7
2019-01-11T01:20:16.478Z,75.7
2019-01-11T01:21:16.548Z,75.8
2019-01-11T01:22:15.806Z,75.6
2019-01-11T01:23:16.064Z,75.3
2019-01-11T01:24:16.324Z,75.2
2019-01-11T01:25:16.582Z,74.7
2019-01-11T01:26:15.853Z,74.2
2019-01-11T01:27:16.118Z,74.7
2019-01-11T01:28:16.381Z,75.5
2019-01-11T01:29:16.651Z,74.8
2019-01-11T01:30:15.959Z,74.5
2019-01-11T01:31:15.994Z,73.8
2019-01-11T01:32:16.266Z,73.6
2019-01-11T01:33:16.548Z,74.1
2019-01-11T01:34:15.813Z,74.8
2019-01-11T01:35:16.101Z,75.1
2019-01-11T01:36:16.365Z,74.9
2019-01-11T01:37:16.631Z,74.9
2019-01-11T01:38:15.893Z,75.6
2019-01-11T01:39:16.173Z,75.5
2019-01-11T01:40:16.447Z,76.1
2019-01-11T01:41:16.497Z,77.1
2019-01-11T01:42:15.754Z,77.8
2019-01-11T01:43:16.016Z,77.2
2019-01-11T01:44:16.289Z,76.9
2019-01-11T01:45:16.556Z,77.9
2019-01-11T01:46:15.823Z,76.9
2019-01-11T01:47:16.080Z,76.8
2019-01-11T01:48:16.348Z,76.6
2019-01-11T01:49:16.650Z,77.3
2019-01-11T01:50:16.008Z,77.5
2019-01-11T01:51:16.065Z,76.7
2019-01-11T01:52:16.326Z,76.5
2019-01-11T01:53:16.593Z,76.4
2019-01-11T01:54:15.859Z,76.1
2019-01-11T01:55:16.127Z,76.5
2019-01-11T01:56:16.401Z,75.9
2019-01-11T01:57:16.664Z,75.9
2019-01-11T01:58:15.932Z,77.3
2019-01-11T01:59:16.175Z,77.0
2019-01-11T02:00:16.462Z,76.2
2019-01-11T02:01:16.497Z,75.9
2019-01-11T02:02:15.761Z,76.2
2019-01-11T02:03:16.032Z,75.6
2019-01-11T02:04:16.350Z,75.7
2019-01-11T02:05:16.617Z,76.5
2019-01-11T02:06:15.884Z,76.2
2019-01-11T02:07:16.148Z,76.3
2019-01-11T02:08:16.601Z,76.3
2019-01-11T02:09:15.882Z,76.4
2019-01-11T02:10:16.200Z,76.8
2019-01-11T02:11:16.204Z,77.0
2019-01-11T02:12:16.471Z,76.9
2019-01-11T02:13:15.738Z,76.8
2019-01-11T02:14:16.092Z,75.7
2019-01-11T02:15:16.363Z,75.5
2019-01-11T02:16:16.633Z,75.1
2019-01-11T02:17:15.900Z,75.2
2019-01-11T02:18:16.160Z,74.9
2019-01-11T02:19:16.434Z,75.5
2019-01-11T02:20:15.707Z,75.7
2019-01-11T02:21:15.756Z,75.2
2019-01-11T02:22:16.036Z,75.0
2019-01-11T02:23:16.300Z,75.1
2019-01-11T02:24:16.598Z,74.9
2019-01-11T02:25:15.860Z,74.7
2019-01-11T02:26:16.116Z,75.4
2019-01-11T02:27:16.390Z,74.3
2019-01-11T02:28:16.653Z,74.2
2019-01-11T02:29:15.914Z,74.4
2019-01-11T02:30:16.216Z,74.0
2019-01-11T02:31:16.222Z,74.2
2019-01-11T02:32:16.500Z,74.2
2019-01-11T02:33:15.777Z,74.7
2019-01-11T02:34:16.040Z,74.5
2019-01-11T02:35:16.314Z,74.5
2019-01-11T02:36:16.579Z,74.7
2019-01-11T02:37:15.850Z,75.0
2019-01-11T02:38:16.121Z,74.6
2019-01-11T02:39:16.385Z,74.3
2019-01-11T02:40:16.675Z,74.8
2019-01-11T02:41:15.739Z,75.1
2019-01-11T02:42:16.014Z,75.5
2019-01-11T02:43:16.286Z,75.7
2019-01-11T02:44:16.566Z,75.4
2019-01-11T02:45:15.838Z,75.5
2019-01-11T02:46:16.105Z,75.8
2019-01-11T02:47:16.365Z,75.8
2019-01-11T02:48:16.617Z,76.6
2019-01-11T02:49:15.887Z,75.7
2019-01-11T02:50:16.214Z,76.2
2019-01-11T02:51:16.205Z,76.2
2019-01-11T02:52:16.463Z,76.8
2019-01-11T02:53:15.720Z,76.1
2019-01-11T02:54:15.992Z,76.2
2019-01-11T02:55:16.270Z,76.2
2019-01-11T02:56:16.539Z,77.0
2019-01-11T02:57:15.800Z,77.2
2019-01-11T02:58:16.066Z,76.9
2019-01-11T02:59:16.330Z,76.7
2019-01-11T03:00:16.903Z,76.7
2019-01-11T03:01:16.678Z,77.1
2019-01-11T03:02:15.948Z,76.8
2019-01-11T03:03:16.217Z,77.2
2019-01-11T03:04:16.490Z,76.4
2019-01-11T03:05:15.771Z,77.2
2019-01-11T03:06:16.211Z,77.5
2019-01-11T03:07:16.476Z,77.0
2019-01-11T03:08:15.792Z,77.1
2019-01-11T03:09:16.054Z,76.5
2019-01-11T03:10:16.328Z,76.6
2019-01-11T03:11:15.776Z,76.3
2019-01-11T03:12:16.048Z,76.8
2019-01-11T03:13:16.318Z,76.3
2019-01-11T03:14:16.592Z,76.4
2019-01-11T03:15:15.865Z,76.8
2019-01-11T03:16:16.136Z,77.1
2019-01-11T03:17:16.400Z,77.5
2019-01-11T03:18:16.670Z,77.5
2019-01-11T03:19:15.989Z,77.7
2019-01-11T03:20:16.263Z,77.4
2019-01-11T03:21:16.302Z,77.7
2019-01-11T03:22:16.566Z,78.1
2019-01-11T03:23:15.823Z,78.3
2019-01-11T03:24:16.084Z,78.4
2019-01-11T03:25:16.359Z,78.3
2019-01-11T03:26:16.629Z,79.0
2019-01-11T03:27:15.892Z,79.2
2019-01-11T03:28:16.156Z,78.8
2019-01-11T03:29:16.413Z,78.3
2019-01-11T03:30:15.729Z,78.2
2019-01-11T03:31:15.753Z,78.7
2019-01-11T03:32:16.062Z,78.7
2019-01-11T03:33:16.340Z,78.7
2019-01-11T03:34:16.604Z,79.0
2019-01-11T03:35:15.875Z,79.5
2019-01-11T03:36:16.148Z,79.8
2019-01-11T03:37:16.419Z,79.4
2019-01-11T03:38:15.700Z,79.5
2019-01-11T03:39:15.997Z,79.7
2019-01-11T03:40:16.275Z,79.4
2019-01-11T03:41:16.316Z,79.7
2019-01-11T03:42:16.589Z,79.3
2019-01-11T03:43:15.865Z,79.2
2019-01-11T03:44:16.161Z,79.9
2019-01-11T03:45:16.436Z,79.7
2019-01-11T03:46:15.707Z,80.2
2019-01-11T03:47:15.980Z,80.0
2019-01-11T03:48:16.244Z,79.6
2019-01-11T03:49:16.515Z,79.5
2019-01-11T03:50:15.786Z,79.9
2019-01-11T03:51:15.837Z,79.7
2019-01-11T03:52:16.102Z,81.0
2019-01-11T03:53:16.381Z,81.1
2019-01-11T03:54:16.642Z,80.7
2019-01-11T03:55:15.912Z,80.4
2019-01-11T03:56:16.179Z,80.2
2019-01-11T03:57:16.454Z,80.5
2019-01-11T03:58:15.771Z,80.8
2019-01-11T03:59:16.036Z,80.7
2019-01-11T04:00:16.309Z,81.0
2019-01-11T04:01:16.365Z,82.2
2019-01-11T04:02:16.636Z,82.0
2019-01-11T04:03:15.911Z,81.3
2019-01-11T04:04:16.180Z,81.7
2019-01-11T04:05:16.447Z,82.0
2019-01-11T04:06:15.710Z,82.2
2019-01-11T04:07:15.992Z,82.0
2019-01-11T04:08:16.256Z,82.1
2019-01-11T04:09:16.524Z,82.2
2019-01-11T04:10:15.811Z,82.2
2019-01-11T04:11:15.864Z,82.3
2019-01-11T04:12:16.136Z,82.7
2019-01-11T04:13:16.400Z,82.0
2019-01-11T04:14:16.668Z,82.3
2019-01-11T04:15:15.961Z,82.5
2019-01-11T04:16:16.228Z,83.0
2019-01-11T04:17:16.506Z,82.9
2019-01-11T04:18:15.779Z,82.6
2019-01-11T04:19:16.050Z,82.3
2019-01-11T04:20:16.323Z,83.2
2019-01-11T04:21:16.371Z,82.7
2019-01-11T04:22:16.632Z,82.4
2019-01-11T04:23:15.895Z,82.4
2019-01-11T04:24:16.166Z,82.7
2019-01-11T04:25:16.461Z,83.3
2019-01-11T04:26:15.730Z,83.5
2019-01-11T04:27:15.987Z,83.2
2019-01-11T04:28:16.262Z,82.9
2019-01-11T04:29:16.529Z,83.0
2019-01-11T04:30:15.809Z,83.3
2019-01-11T04:31:15.855Z,83.2
2019-01-11T04:32:16.131Z,83.1
2019-01-11T04:33:16.473Z,83.3
2019-01-11T04:34:15.751Z,83.6
2019-01-11T04:35:16.043Z,83.5
2019-01-11T04:36:16.330Z,83.4
2019-01-11T04:37:16.625Z,83.5
2019-01-11T04:38:15.894Z,83.7
2019-01-11T04:39:16.169Z,83.9
2019-01-11T04:40:16.448Z,84.1
2019-01-11T04:41:16.497Z,83.3
2019-01-11T04:42:15.778Z,83.4
2019-01-11T04:43:16.057Z,83.5
2019-01-11T04:44:16.330Z,83.3
2019-01-11T04:45:16.598Z,83.3
2019-01-11T04:46:15.874Z,83.8
2019-01-11T04:47:16.143Z,83.7
2019-01-11T04:48:16.429Z,83.6
2019-01-11T04:49:15.706Z,83.5
2019-01-11T04:50:15.994Z,83.2
2019-01-11T04:51:16.038Z,83.7
2019-01-11T04:52:16.321Z,83.8
2019-01-11T04:53:16.595Z,83.6
2019-01-11T04:54:15.870Z,83.7
2019-01-11T04:55:16.142Z,83.7
2019-01-11T04:56:16.410Z,83.8
2019-01-11T04:57:15.663Z,84.1
2019-01-11T04:58:15.940Z,84.0
2019-01-11T04:59:16.207Z,83.8
2019-01-11T05:00:16.483Z,83.8
2019-01-11T05:01:16.550Z,83.9
2019-01-11T05:02:15.832Z,83.8
2019-01-11T05:03:16.119Z,84.0
2019-01-11T05:04:16.395Z,84.0
2019-01-11T05:05:16.665Z,84.2
2019-01-11T05:06:15.932Z,84.2
2019-01-11T05:07:16.205Z,84.1
2019-01-11T05:08:16.481Z,83.7
2019-01-11T05:09:15.756Z,84.0
2019-01-11T05:10:16.021Z,84.2
2019-01-11T05:11:16.082Z,83.8
2019-01-11T05:12:16.362Z,84.0
2019-01-11T05:13:16.635Z,83.4
2019-01-11T05:14:15.892Z,84.0
2019-01-11T05:15:16.181Z,84.0
2019-01-11T05:16:16.452Z,84.0
2019-01-11T05:17:15.727Z,83.9
2019-01-11T05:18:15.998Z,84.0
2019-01-11T05:19:16.279Z,83.3
2019-01-11T05:20:17.325Z,83.1
2019-01-11T05:21:16.593Z,82.9
2019-01-11T05:22:15.860Z,83.1
2019-01-11T05:23:16.132Z,82.8
2019-01-11T05:24:16.396Z,82.5
2019-01-11T05:25:16.668Z,82.6
2019-01-11T05:26:16.221Z,82.8
2019-01-11T05:27:16.497Z,82.6
2019-01-11T05:28:15.761Z,82.5
2019-01-11T05:29:16.033Z,82.2
2019-01-11T05:30:16.320Z,82.0
2019-01-11T05:31:16.345Z,82.3
2019-01-11T05:32:16.610Z,82.2
2019-01-11T05:33:15.872Z,82.1
2019-01-11T05:34:16.137Z,82.7
2019-01-11T05:35:16.414Z,82.7
2019-01-11T05:36:15.680Z,82.4
2019-01-11T05:37:15.961Z,82.3
2019-01-11T05:38:16.233Z,82.3
2019-01-11T05:39:16.501Z,82.2
2019-01-11T05:40:15.773Z,82.2
2019-01-11T05:41:15.810Z,82.2
2019-01-11T05:42:16.082Z,82.6
2019-01-11T05:43:16.346Z,82.8
2019-01-11T05:44:16.613Z,82.3
2019-01-11T05:45:15.886Z,82.7
2019-01-11T05:46:16.147Z,83.0
2019-01-11T05:47:16.668Z,82.7
2019-01-11T05:48:15.927Z,82.7
2019-01-11T05:49:16.191Z,82.7
2019-01-11T05:50:23.355Z,83.3
2019-01-11T05:51:16.509Z,82.9
2019-01-11T05:52:15.769Z,83.1
2019-01-11T05:53:16.041Z,83.9
2019-01-11T05:54:16.314Z,83.6
2019-01-11T05:55:16.576Z,83.6
2019-01-11T05:56:15.837Z,83.4
2019-01-11T05:57:16.111Z,83.8
2019-01-11T05:58:16.389Z,83.4
2019-01-11T05:59:16.664Z,83.7
2019-01-11T06:00:16.252Z,84.9
2019-01-11T06:01:16.003Z,84.8
2019-01-11T06:02:16.277Z,84.8
2019-01-11T06:03:16.546Z,85.1
2019-01-11T06:04:15.833Z,84.8
2019-01-11T06:05:16.100Z,85.3
2019-01-11T06:06:16.374Z,85.0
2019-01-11T06:07:16.639Z,85.2
2019-01-11T06:08:15.904Z,85.7
2019-01-11T06:09:16.168Z,85.1
2019-01-11T06:10:16.443Z,85.2
2019-01-11T06:11:16.484Z,85.2
2019-01-11T06:12:15.750Z,85.0
2019-01-11T06:13:16.024Z,85.2
2019-01-11T06:14:16.287Z,84.9
2019-01-11T06:15:16.565Z,85.3
2019-01-11T06:16:15.820Z,85.0
2019-01-11T06:17:16.081Z,85.2
2019-01-11T06:18:16.342Z,85.4
2019-01-11T06:19:16.606Z,85.7
2019-01-11T06:20:15.877Z,86.0
2019-01-11T06:21:15.902Z,86.5
2019-01-11T06:22:16.167Z,86.1
2019-01-11T06:23:16.424Z,86.0
2019-01-11T06:24:15.694Z,86.2
2019-01-11T06:25:16.031Z,86.3
2019-01-11T06:26:16.319Z,86.8
2019-01-11T06:27:16.588Z,87.0
2019-01-11T06:28:15.851Z,86.8
2019-01-11T06:29:16.127Z,87.3
2019-01-11T06:30:16.400Z,87.2
2019-01-11T06:31:16.447Z,87.3
2019-01-11T06:32:15.716Z,87.2
2019-01-11T06:33:15.978Z,87.2
2019-01-11T06:34:16.240Z,87.4
2019-01-11T06:35:16.568Z,87.3
2019-01-11T06:36:15.860Z,87.8
2019-01-11T06:37:16.122Z,87.8
2019-01-11T06:38:16.400Z,88.0
2019-01-11T06:39:16.686Z,88.1
2019-01-11T06:40:15.968Z,88.1
2019-01-11T06:41:16.019Z,87.8
2019-01-11T06:42:16.296Z,88.1
2019-01-11T06:43:16.558Z,87.7
2019-01-11T06:44:15.823Z,87.4
2019-01-11T06:45:16.094Z,87.5
2019-01-11T06:46:16.358Z,87.9
2019-01-11T06:47:18.556Z,88.2
2019-01-11T06:48:15.850Z,88.6
2019-01-11T06:49:16.111Z,88.5
2019-01-11T06:50:16.383Z,88.5
2019-01-11T06:51:16.445Z,88.8
2019-01-11T06:52:15.709Z,88.7
2019-01-11T06:53:15.973Z,89.2
2019-01-11T06:54:16.251Z,89.3
2019-01-11T06:55:16.527Z,89.2
2019-01-11T06:56:15.794Z,89.2
2019-01-11T06:57:16.072Z,89.3
2019-01-11T06:58:16.351Z,89.5
2019-01-11T06:59:16.621Z,89.8
2019-01-11T07:00:15.905Z,90.1
2019-01-11T07:01:15.963Z,89.8
2019-01-11T07:02:16.235Z,90.2
2019-01-11T07:03:16.501Z,90.4
2019-01-11T07:04:15.776Z,90.7
2019-01-11T07:05:16.052Z,90.7
2019-01-11T07:06:16.324Z,90.9
2019-01-11T07:07:16.598Z,91.2
2019-01-11T07:08:15.857Z,91.3
2019-01-11T07:09:16.137Z,91.7
2019-01-11T07:10:16.426Z,91.7
2019-01-11T07:11:16.462Z,91.6
2019-01-11T07:12:15.723Z,91.9
2019-01-11T07:13:15.991Z,92.3
2019-01-11T07:14:16.275Z,92.6
2019-01-11T07:15:16.545Z,92.7
2019-01-11T07:16:15.811Z,92.7
2019-01-11T07:17:16.075Z,92.7
2019-01-11T07:18:16.333Z,92.8
2019-01-11T07:19:16.627Z,92.8
2019-01-11T07:20:15.908Z,93.2
2019-01-11T07:21:15.953Z,93.2
2019-01-11T07:22:16.212Z,93.0
2019-01-11T07:23:16.467Z,93.2
2019-01-11T07:24:15.732Z,93.3
2019-01-11T07:25:16.001Z,93.3
2019-01-11T07:26:16.299Z,93.2
2019-01-11T07:27:16.564Z,93.3
2019-01-11T07:28:15.829Z,93.3
2019-01-11T07:29:16.105Z,93.1
2019-01-11T07:30:16.382Z,93.1
2019-01-11T07:31:16.447Z,93.1
2019-01-11T07:32:15.713Z,93.0
2019-01-11T07:33:15.976Z,93.2
2019-01-11T07:34:16.250Z,93.1
2019-01-11T07:35:16.516Z,93.2
2019-01-11T07:36:15.789Z,93.4
2019-01-11T07:37:16.057Z,93.4
2019-01-11T07:38:16.313Z,93.2
2019-01-11T07:39:16.577Z,93.0
2019-01-11T07:40:15.854Z,93.2
2019-01-11T07:41:15.902Z,93.4
2019-01-11T07:42:16.162Z,93.7
2019-01-11T07:43:16.429Z,93.6
2019-01-11T07:44:15.700Z,93.8
2019-01-11T07:45:15.973Z,93.7
2019-01-11T07:46:16.239Z,93.6
2019-01-11T07:47:16.511Z,93.4
2019-01-11T07:48:15.781Z,93.7
2019-01-11T07:49:16.064Z,93.5
2019-01-11T07:50:16.337Z,93.7
2019-01-11T07:51:16.384Z,93.8
2019-01-11T07:52:16.644Z,94.2
2019-01-11T07:53:15.915Z,94.3
2019-01-11T07:54:16.177Z,94.3
2019-01-11T07:55:16.442Z,94.2
2019-01-11T07:56:15.711Z,94.3
2019-01-11T07:57:15.987Z,94.3
2019-01-11T07:58:16.250Z,94.7
2019-01-11T07:59:16.515Z,94.5
2019-01-11T08:00:15.799Z,94.5
2019-01-11T08:01:15.870Z,94.8
2019-01-11T08:02:16.135Z,94.8
2019-01-11T08:03:16.401Z,95.0
2019-01-11T08:04:15.668Z,94.8
2019-01-11T08:05:15.940Z,94.7
2019-01-11T08:06:16.206Z,94.7
2019-01-11T08:07:16.466Z,94.8
2019-01-11T08:08:15.741Z,94.9
2019-01-11T08:09:16.006Z,94.8
2019-01-11T08:10:16.292Z,94.6
2019-01-11T08:11:16.322Z,94.9
2019-01-11T08:12:16.586Z,95.2
2019-01-11T08:13:15.843Z,95.2
2019-01-11T08:14:16.113Z,94.8
2019-01-11T08:15:16.389Z,94.8
2019-01-11T08:16:16.684Z,94.8
2019-01-11T08:17:15.954Z,94.8
2019-01-11T08:18:16.226Z,94.8
2019-01-11T08:19:16.494Z,94.8
2019-01-11T08:20:15.774Z,94.8
2019-01-11T08:21:15.816Z,94.9
2019-01-11T08:22:16.073Z,95.1
2019-01-11T08:23:16.347Z,95.1
2019-01-11T08:24:17.515Z,95.0
2019-01-11T08:25:15.794Z,95.1
2019-01-11T08:26:16.090Z,95.2
2019-01-11T08:27:16.352Z,95.2
2019-01-11T08:28:16.623Z,95.3
2019-01-11T08:29:15.898Z,95.2
2019-01-11T08:30:16.927Z,95.2
2019-01-11T08:31:16.221Z,95.1
2019-01-11T08:32:16.490Z,95.1
2019-01-11T08:33:18.912Z,95.2
2019-01-11T08:34:16.219Z,95.1
2019-01-11T08:35:16.488Z,95.1
2019-01-11T08:36:15.748Z,95.1
2019-01-11T08:37:16.014Z,95.2
2019-01-11T08:38:16.279Z,95.1
2019-01-11T08:39:16.548Z,95.2
2019-01-11T08:40:15.829Z,95.2
2019-01-11T08:41:15.879Z,95.2
2019-01-11T08:42:16.146Z,95.1
2019-01-11T08:43:16.403Z,95.1
2019-01-11T08:44:16.664Z,95.1
2019-01-11T08:45:15.939Z,95.1
2019-01-11T08:46:16.203Z,95.2
2019-01-11T08:47:16.476Z,95.2
2019-01-11T08:48:15.739Z,95.1
2019-01-11T08:49:16.001Z,95.2
2019-01-11T08:50:16.272Z,95.2
2019-01-11T08:51:16.311Z,95.1
2019-01-11T08:52:16.588Z,95.1
2019-01-11T08:53:15.864Z,95.2
2019-01-11T08:54:16.133Z,95.2
2019-01-11T08:55:16.403Z,95.3
2019-01-11T08:56:15.665Z,95.3
2019-01-11T08:57:16.184Z,95.0
2019-01-11T08:58:16.449Z,95.2
2019-01-11T08:59:15.712Z,95.1
2019-01-11T09:00:16.001Z,95.2
2019-01-11T09:01:16.054Z,95.4
2019-01-11T09:02:16.312Z,95.2
2019-01-11T09:03:16.586Z,95.2
2019-01-11T09:04:15.849Z,95.3
2019-01-11T09:05:16.131Z,95.2
2019-01-11T09:06:16.402Z,95.2
2019-01-11T09:07:15.669Z,95.2
2019-01-11T09:08:15.936Z,95.1
2019-01-11T09:09:16.202Z,95.0
2019-01-11T09:10:23.951Z,94.9
2019-01-11T09:11:16.524Z,94.7
2019-01-11T09:12:15.792Z,94.5
2019-01-11T09:13:16.054Z,94.6
2019-01-11T09:14:16.328Z,94.6
2019-01-11T09:15:16.594Z,94.6
2019-01-11T09:16:20.957Z,94.8
2019-01-11T09:17:16.228Z,94.6
2019-01-11T09:18:16.490Z,94.5
2019-01-11T09:19:15.760Z,94.8
2019-01-11T09:20:16.016Z,94.7
2019-01-11T09:21:16.083Z,94.2
2019-01-11T09:22:16.661Z,94.2
2019-01-11T09:23:15.937Z,94.4
2019-01-11T09:24:16.191Z,94.2
2019-01-11T09:25:16.448Z,94.3
2019-01-11T09:26:15.709Z,94.3
2019-01-11T09:27:15.974Z,94.2
2019-01-11T09:28:16.253Z,94.3
2019-01-11T09:29:16.512Z,94.4
2019-01-11T09:30:15.790Z,94.2
2019-01-11T09:31:15.814Z,94.2
2019-01-11T09:32:16.081Z,94.0
2019-01-11T09:33:20.885Z,94.2
2019-01-11T09:34:16.178Z,94.1
2019-01-11T09:35:16.454Z,93.8
2019-01-11T09:36:15.715Z,93.8
2019-01-11T09:37:15.981Z,94.1
2019-01-11T09:38:16.420Z,94.2
2019-01-11T09:39:15.694Z,94.0
2019-01-11T09:40:15.970Z,93.8
2019-01-11T09:41:16.056Z,93.9
2019-01-11T09:42:16.309Z,93.9
2019-01-11T09:43:16.566Z,93.7
2019-01-11T09:44:15.841Z,93.7
2019-01-11T09:45:16.108Z,94.1
2019-01-11T09:46:16.377Z,93.9
2019-01-11T09:47:16.648Z,93.9
2019-01-11T09:48:15.914Z,93.8
2019-01-11T09:49:16.175Z,94.0
2019-01-11T09:50:16.441Z,93.8
2019-01-11T09:51:16.516Z,93.8
2019-01-11T09:52:15.785Z,93.5
2019-01-11T09:53:16.301Z,93.7
2019-01-11T09:54:16.565Z,93.5
2019-01-11T09:55:15.872Z,93.7
2019-01-11T09:56:16.140Z,93.3
2019-01-11T09:57:16.396Z,93.2
2019-01-11T09:58:16.674Z,93.4
2019-01-11T09:59:15.939Z,93.4
2019-01-11T10:00:16.218Z,93.5
2019-01-11T10:01:16.245Z,93.6
2019-01-11T10:02:16.521Z,93.4
2019-01-11T10:03:15.808Z,93.5
2019-01-11T10:04:16.700Z,93.2
2019-01-11T10:05:15.973Z,93.3
2019-01-11T10:06:16.235Z,93.2
2019-01-11T10:07:16.500Z,93.5
2019-01-11T10:08:15.761Z,93.5
2019-01-11T10:09:16.031Z,93.5
2019-01-11T10:10:16.308Z,93.3
2019-01-11T10:11:16.353Z,93.3
2019-01-11T10:12:16.621Z,93.3
2019-01-11T10:13:15.898Z,93.3
2019-01-11T10:14:16.159Z,93.4
2019-01-11T10:15:16.441Z,93.7
2019-01-11T10:16:15.706Z,93.5
2019-01-11T10:17:15.980Z,93.4
2019-01-11T10:18:16.240Z,93.8
2019-01-11T10:19:16.503Z,93.8
2019-01-11T10:20:15.786Z,93.7
2019-01-11T10:21:23.884Z,93.8
2019-01-11T10:22:16.242Z,93.9
2019-01-11T10:23:16.508Z,93.7
2019-01-11T10:24:15.771Z,93.5
2019-01-11T10:25:16.045Z,93.7
2019-01-11T10:26:16.308Z,93.5
2019-01-11T10:27:16.571Z,93.3
2019-01-11T10:28:15.828Z,93.2
2019-01-11T10:29:16.103Z,93.3
2019-01-11T10:30:16.359Z,93.4
2019-01-11T10:31:16.407Z,93.4
2019-01-11T10:32:15.673Z,93.0
2019-01-11T10:33:15.934Z,93.2
2019-01-11T10:34:16.204Z,93.2
2019-01-11T10:35:16.467Z,93.2
2019-01-11T10:36:15.733Z,93.0
2019-01-11T10:37:15.995Z,93.0
2019-01-11T10:38:16.266Z,93.2
2019-01-11T10:39:16.532Z,93.2
2019-01-11T10:40:15.806Z,93.4
2019-01-11T10:41:15.860Z,93.6
2019-01-11T10:42:16.129Z,93.2
2019-01-11T10:43:16.386Z,93.3
2019-01-11T10:44:16.664Z,93.4
2019-01-11T10:45:15.938Z,93.4
2019-01-11T10:46:16.217Z,93.3
2019-01-11T10:47:16.480Z,93.4
2019-01-11T10:48:15.750Z,93.5
2019-01-11T10:49:16.004Z,93.6
2019-01-11T10:50:16.283Z,93.9
2019-01-11T10:51:19.181Z,93.5
2019-01-11T10:52:16.453Z,93.5
2019-01-11T10:53:15.716Z,93.6
2019-01-11T10:54:15.977Z,93.4
2019-01-11T10:55:16.249Z,93.4
2019-01-11T10:56:16.521Z,93.5
2019-01-11T10:57:15.782Z,93.6
2019-01-11T10:58:16.056Z,93.6
2019-01-11T10:59:16.324Z,93.3
2019-01-11T11:00:16.620Z,93.3
2019-01-11T11:01:16.658Z,93.5
2019-01-11T11:02:15.920Z,93.5
2019-01-11T11:03:16.182Z,93.2
2019-01-11T11:04:16.448Z,93.3
2019-01-11T11:05:15.718Z,93.2
2019-01-11T11:06:15.975Z,93.0
2019-01-11T11:07:16.238Z,93.0
2019-01-11T11:08:16.500Z,93.0
2019-01-11T11:09:15.771Z,92.9
2019-01-11T11:10:16.083Z,93.1
2019-01-11T11:11:16.907Z,93.0
2019-01-11T11:12:16.178Z,93.2
2019-01-11T11:13:16.452Z,93.2
2019-01-11T11:14:15.719Z,93.2
2019-01-11T11:15:15.992Z,93.9
2019-01-11T11:16:16.252Z,93.9
2019-01-11T11:17:16.529Z,94.2
2019-01-11T11:18:15.792Z,94.2
2019-01-11T11:19:16.070Z,94.1
2019-01-11T11:20:16.375Z,94.0
2019-01-11T11:21:16.405Z,94.1
2019-01-11T11:22:15.672Z,94.4
2019-01-11T11:23:15.924Z,94.3
2019-01-11T11:24:16.189Z,94.6
2019-01-11T11:25:16.478Z,94.2
2019-01-11T11:26:15.736Z,94.3
2019-01-11T11:27:16.008Z,94.7
2019-01-11T11:28:16.268Z,94.7
2019-01-11T11:29:16.538Z,94.5
2019-01-11T11:30:15.822Z,94.7
2019-01-11T11:31:15.870Z,94.7
2019-01-11T11:32:16.149Z,94.5
2019-01-11T11:33:16.413Z,94.5
2019-01-11T11:34:15.673Z,94.7
2019-01-11T11:35:15.939Z,94.8
2019-01-11T11:36:16.201Z,94.8
2019-01-11T11:37:17.937Z,94.8
2019-01-11T11:38:16.198Z,94.6
2019-01-11T11:39:16.457Z,94.4
2019-01-11T11:40:15.724Z,94.2
2019-01-11T11:41:15.777Z,94.5
2019-01-11T11:42:17.053Z,94.4
2019-01-11T11:43:16.322Z,94.6
2019-01-11T11:44:16.596Z,94.5
2019-01-11T11:45:15.866Z,94.3
2019-01-11T11:46:16.125Z,94.3
2019-01-11T11:47:16.395Z,94.3
2019-01-11T11:48:16.662Z,94.3
2019-01-11T11:49:15.942Z,94.5
2019-01-11T11:50:16.221Z,94.7
2019-01-11T11:51:16.244Z,95.0
2019-01-11T11:52:16.500Z,94.9
2019-01-11T11:53:15.771Z,95.1
2019-01-11T11:54:16.042Z,95.3
2019-01-11T11:55:16.305Z,95.3
2019-01-11T11:56:16.569Z,95.3
2019-01-11T11:57:15.835Z,95.6
2019-01-11T11:58:16.103Z,95.8
2019-01-11T11:59:16.365Z,96.0
2019-01-11T12:00:16.644Z,95.9
2019-01-11T12:01:15.683Z,95.8
2019-01-11T12:02:19.475Z,95.8
2019-01-11T12:03:15.759Z,95.9
2019-01-11T12:04:16.016Z,95.9
2019-01-11T12:05:16.290Z,95.9
2019-01-11T12:06:16.573Z,95.8
2019-01-11T12:07:15.840Z,95.8
2019-01-11T12:08:16.122Z,95.8
2019-01-11T12:09:16.389Z,96.0
2019-01-11T12:10:16.670Z,96.0
2019-01-11T12:11:15.699Z,95.8
2019-01-11T12:12:15.966Z,95.8
2019-01-11T12:13:16.240Z,95.9
2019-01-11T12:14:16.506Z,95.8
2019-01-11T12:15:15.776Z,95.8
2019-01-11T12:16:16.034Z,95.7
2019-01-11T12:17:16.295Z,95.7
2019-01-11T12:18:16.569Z,95.5
2019-01-11T12:19:15.841Z,95.5
2019-01-11T12:20:16.118Z,95.6
2019-01-11T12:21:16.148Z,95.7
2019-01-11T12:22:16.425Z,95.7
2019-01-11T12:23:15.692Z,95.8
2019-01-11T12:24:15.958Z,96.0
2019-01-11T12:25:16.215Z,96.2
2019-01-11T12:26:16.480Z,96.2
2019-01-11T12:27:15.745Z,96.3
2019-01-11T12:28:16.010Z,96.5
2019-01-11T12:29:16.267Z,96.8
2019-01-11T12:30:16.543Z,97.0
2019-01-11T12:31:16.591Z,97.1
2019-01-11T12:32:19.788Z,97.2
2019-01-11T12:33:16.065Z,97.3
2019-01-11T12:34:16.329Z,97.3
2019-01-11T12:35:16.600Z,97.1
2019-01-11T12:36:15.875Z,97.0
2019-01-11T12:37:16.136Z,96.7
2019-01-11T12:38:16.395Z,96.5
2019-01-11T12:39:16.655Z,96.5
2019-01-11T12:40:15.932Z,96.4
2019-01-11T12:41:15.966Z,96.4
2019-01-11T12:42:16.237Z,96.4
2019-01-11T12:43:16.489Z,96.5
2019-01-11T12:44:15.750Z,96.5
2019-01-11T12:45:16.019Z,96.6
2019-01-11T12:46:16.290Z,96.7
2019-01-11T12:47:16.558Z,96.9
2019-01-11T12:48:15.820Z,97.0
2019-01-11T12:49:16.098Z,97.2
2019-01-11T12:50:16.373Z,97.2
2019-01-11T12:51:16.442Z,97.2
2019-01-11T12:52:15.718Z,97.3
2019-01-11T12:53:15.984Z,97.5
2019-01-11T12:54:16.242Z,97.7
2019-01-11T12:55:16.513Z,97.9
2019-01-11T12:56:15.780Z,98.1
2019-01-11T12:57:16.044Z,98.2
2019-01-11T12:58:16.299Z,98.2
2019-01-11T12:59:16.556Z,98.1
2019-01-11T13:00:15.834Z,98.3
2019-01-11T13:01:15.869Z,98.2
2019-01-11T13:02:16.132Z,98.3
2019-01-11T13:03:16.397Z,98.4
2019-01-11T13:04:16.659Z,98.4
2019-01-11T13:05:15.923Z,98.3
2019-01-11T13:06:16.195Z,98.4
2019-01-11T13:07:16.458Z,98.4
2019-01-11T13:08:15.728Z,98.3
2019-01-11T13:09:15.996Z,98.4
2019-01-11T13:10:16.262Z,98.3
2019-01-11T13:11:16.330Z,98.3
2019-01-11T13:12:16.601Z,98.3
2019-01-11T13:13:15.871Z,98.3
2019-01-11T13:14:16.148Z,98.2
2019-01-11T13:15:16.423Z,98.2
2019-01-11T13:16:15.685Z,98.1
2019-01-11T13:17:15.958Z,98.0
2019-01-11T13:18:16.230Z,98.1